Valburg, Netherlands
Current Conditions -  °F | °C
As of 12:55 PM on Friday 28 Nov 2014 (Local Time) from EHDL Reporting Station
Haze Haze  
Wind Chill: 39°   Ceiling: 10000
Heat Index: 45°   Visibility: 4mi
Dew Point: 41°   Wind: 10mph
Humidity: 87%   Direction: 80°E
Pressure: 29.8"   Gusts: NA
Location:  51.91°N, 5.79°E
Report Text: EHDL 281155Z AUTO 08009KT 7000 BR OVC100 07/05 Q1009 WHT
Loading
Personal Weather Stations






























Interactive Weather Map New forecast layout! Learn more

10-Day Weather Forecast

Advertisements
Track Severe Weather on mobile